Time;durP1;ratioP1;P1;durP2;ratioP2;P2;SDS_P1;SDS_P2;PMS_P1;PMS_P2;Temp;Humidity;BMP_temperature;BMP_pressure;BME280_temperature;BME280_humidity;BME280_pressure;Samples;Min_cycle;Max_cycle;Signal;HPM_P1;HPM_P2
2022/07/21 00:02:14;;;;;;;13.55;9.80;;;;;;;;;;5052792;28;20017;-75
2022/07/21 00:04:40;;;;;;;14.60;10.40;;;;;;;;;;5054885;28;20542;-75
2022/07/21 00:07:06;;;;;;;15.32;10.25;;;;;;;;;;5054853;28;20109;-75
2022/07/21 00:09:35;;;;;;;15.90;10.65;;;;;;;;;;5054915;28;20052;-75
2022/07/21 00:12:01;;;;;;;16.10;11.05;;;;;;;;;;5054858;28;20044;-75
2022/07/21 00:14:27;;;;;;;15.48;11.10;;;;;;;;;;5054708;28;20125;-75
2022/07/21 00:16:53;;;;;;;13.82;10.90;;;;;;;;;;5054454;28;20071;-75
2022/07/21 00:19:19;;;;;;;13.57;10.70;;;;;;;;;;5054744;28;20436;-75
2022/07/21 00:21:45;;;;;;;12.70;8.10;;;;;;;;;;5054593;28;20351;-75
2022/07/21 00:24:11;;;;;;;11.40;8.00;;;;;;;;;;5054637;28;20046;-75
2022/07/21 00:26:37;;;;;;;12.93;7.88;;;;;;;;;;5054636;28;20044;-75
2022/07/21 00:29:03;;;;;;;10.45;7.85;;;;;;;;;;5054568;28;20111;-75
2022/07/21 00:31:29;;;;;;;9.23;7.40;;;;;;;;;;5054354;28;20040;-75
2022/07/21 00:33:55;;;;;;;10.45;7.55;;;;;;;;;;5054462;28;20294;-75
2022/07/21 00:36:22;;;;;;;10.43;7.38;;;;;;;;;;5054217;28;20029;-75
2022/07/21 00:38:48;;;;;;;11.25;7.72;;;;;;;;;;5054556;28;20033;-75
2022/07/21 00:41:14;;;;;;;10.00;7.40;;;;;;;;;;5054164;28;20051;-75
2022/07/21 00:43:40;;;;;;;12.27;8.27;;;;;;;;;;5053032;28;20361;-75
2022/07/21 00:46:06;;;;;;;10.82;8.40;;;;;;;;;;5053853;28;20422;-75
2022/07/21 00:48:32;;;;;;;10.50;7.97;;;;;;;;;;5054242;28;20033;-75
2022/07/21 00:50:59;;;;;;;14.30;8.70;;;;;;;;;;5053994;28;20104;-75
2022/07/21 00:53:25;;;;;;;10.45;7.68;;;;;;;;;;5054243;28;20029;-75
2022/07/21 00:55:51;;;;;;;10.73;8.60;;;;;;;;;;5053960;28;20463;-76
2022/07/21 00:58:17;;;;;;;12.35;7.80;;;;;;;;;;5054027;28;20071;-74
2022/07/21 01:00:43;;;;;;;10.02;7.45;;;;;;;;;;5053818;28;20021;-75
2022/07/21 01:03:09;;;;;;;10.50;8.18;;;;;;;;;;5053996;28;20020;-75
2022/07/21 01:05:35;;;;;;;9.45;7.70;;;;;;;;;;5053748;28;20108;-75
2022/07/21 01:08:04;;;;;;;11.38;8.32;;;;;;;;;;5053976;28;20053;-75
2022/07/21 01:10:31;;;;;;;11.27;8.85;;;;;;;;;;5053655;28;20387;-75
2022/07/21 01:12:58;;;;;;;10.52;8.30;;;;;;;;;;5053704;28;20023;-75
2022/07/21 01:15:24;;;;;;;12.48;8.35;;;;;;;;;;5053308;28;20061;-75
2022/07/21 01:17:50;;;;;;;13.43;9.32;;;;;;;;;;5053587;28;20027;-75
2022/07/21 01:20:18;;;;;;;12.30;9.35;;;;;;;;;;5053367;28;20031;-75
2022/07/21 01:22:44;;;;;;;14.52;9.75;;;;;;;;;;5053566;28;20032;-75
2022/07/21 01:25:11;;;;;;;12.38;9.23;;;;;;;;;;5053453;28;20083;-75
2022/07/21 01:27:38;;;;;;;14.07;10.40;;;;;;;;;;5053464;28;20021;-75
2022/07/21 01:30:07;;;;;;;17.00;11.00;;;;;;;;;;5053224;28;20029;-75
2022/07/21 01:32:33;;;;;;;14.80;11.63;;;;;;;;;;5053352;28;20025;-75
2022/07/21 01:34:59;;;;;;;18.00;13.05;;;;;;;;;;5053221;28;20095;-75
2022/07/21 01:37:29;;;;;;;14.32;11.77;;;;;;;;;;5053215;28;20451;-75
2022/07/21 01:42:39;;;;;;;18.27;13.63;;;;;;;;;;5053161;28;20098;-75
2022/07/21 01:45:06;;;;;;;15.10;12.00;;;;;;;;;;5052868;28;20036;-75
2022/07/21 01:47:32;;;;;;;13.88;11.63;;;;;;;;;;5053136;28;20029;-75
2022/07/21 01:49:58;;;;;;;15.05;10.40;;;;;;;;;;5052801;28;20487;-75
2022/07/21 01:52:24;;;;;;;14.77;12.10;;;;;;;;;;5052889;28;20467;-75
2022/07/21 01:54:51;;;;;;;17.83;12.80;;;;;;;;;;5051002;28;20037;-75
2022/07/21 01:57:17;;;;;;;19.60;13.98;;;;;;;;;;5048503;28;20027;-75
2022/07/21 01:59:43;;;;;;;17.25;12.40;;;;;;;;;;5050997;28;20029;-75
2022/07/21 02:02:09;;;;;;;17.20;12.50;;;;;;;;;;5050324;28;20021;-75
2022/07/21 02:04:35;;;;;;;16.80;12.77;;;;;;;;;;5031680;28;20104;-75
2022/07/21 02:07:02;;;;;;;18.23;12.57;;;;;;;;;;5031475;28;20392;-75
2022/07/21 02:09:28;;;;;;;18.83;13.82;;;;;;;;;;5031391;28;20124;-75
2022/07/21 02:11:54;;;;;;;21.17;13.35;;;;;;;;;;5031433;28;20083;-75
2022/07/21 02:14:20;;;;;;;16.13;12.55;;;;;;;;;;5032405;28;20053;-75
2022/07/21 02:16:46;;;;;;;18.67;13.88;;;;;;;;;;5050964;28;20052;-75
2022/07/21 02:19:13;;;;;;;17.90;13.70;;;;;;;;;;5051322;28;20036;-75
2022/07/21 02:21:39;;;;;;;21.63;15.27;;;;;;;;;;5050928;28;20116;-75
2022/07/21 02:24:06;;;;;;;17.75;14.55;;;;;;;;;;5051025;28;20029;-75
2022/07/21 02:26:32;;;;;;;20.40;14.57;;;;;;;;;;5050740;28;20039;-75
2022/07/21 02:28:58;;;;;;;22.48;14.35;;;;;;;;;;5051052;28;20056;-75
2022/07/21 02:31:24;;;;;;;22.08;15.43;;;;;;;;;;5051114;28;20490;-75
2022/07/21 02:33:50;;;;;;;21.25;15.05;;;;;;;;;;5050934;28;20028;-75
2022/07/21 02:36:16;;;;;;;21.67;15.77;;;;;;;;;;5050947;28;20412;-75
2022/07/21 02:38:42;;;;;;;22.10;16.02;;;;;;;;;;5051072;28;20050;-75
2022/07/21 02:41:08;;;;;;;22.85;17.20;;;;;;;;;;5050762;28;20028;-75
2022/07/21 02:43:34;;;;;;;26.65;18.63;;;;;;;;;;5050844;28;20017;-75
2022/07/21 02:46:00;;;;;;;22.00;14.90;;;;;;;;;;5050676;28;20096;-75
2022/07/21 02:48:26;;;;;;;20.38;16.30;;;;;;;;;;5050813;28;20430;-75
2022/07/21 02:50:52;;;;;;;21.20;15.60;;;;;;;;;;5050819;28;20522;-75
2022/07/21 02:53:19;;;;;;;22.08;16.08;;;;;;;;;;5050538;28;20032;-75
2022/07/21 02:55:49;;;;;;;24.30;16.30;;;;;;;;;;5051057;28;20104;-75
2022/07/21 02:58:19;;;;;;;24.65;17.20;;;;;;;;;;5051623;28;20017;-75
2022/07/21 03:00:52;;;;;;;24.35;17.02;;;;;;;;;;5051718;28;20485;-75
2022/07/21 03:03:18;;;;;;;26.42;16.80;;;;;;;;;;5051831;28;20033;-75
2022/07/21 03:05:44;;;;;;;23.15;18.02;;;;;;;;;;5051704;28;20035;-75
2022/07/21 03:08:11;;;;;;;27.02;18.05;;;;;;;;;;5051802;28;20380;-74
2022/07/21 03:10:37;;;;;;;29.77;18.45;;;;;;;;;;5051701;28;20047;-75
2022/07/21 03:13:04;;;;;;;25.55;18.27;;;;;;;;;;5051457;28;20025;-75
2022/07/21 03:15:30;;;;;;;27.63;18.60;;;;;;;;;;5051607;28;20045;-75
2022/07/21 03:17:57;;;;;;;26.10;18.27;;;;;;;;;;5051380;28;20368;-75
2022/07/21 03:20:26;;;;;;;32.67;20.70;;;;;;;;;;5051644;28;20029;-74
2022/07/21 03:22:53;;;;;;;28.00;19.63;;;;;;;;;;5051650;28;20025;-75
2022/07/21 03:25:19;;;;;;;25.23;19.40;;;;;;;;;;5051548;28;20029;-75
2022/07/21 03:27:46;;;;;;;26.58;19.92;;;;;;;;;;5051418;28;20545;-75
2022/07/21 03:30:12;;;;;;;27.88;19.55;;;;;;;;;;5051513;28;20025;-75
2022/07/21 03:32:38;;;;;;;29.63;19.88;;;;;;;;;;5051484;28;20057;-75
2022/07/21 03:35:05;;;;;;;27.77;20.15;;;;;;;;;;5051395;28;20086;-75
2022/07/21 03:37:31;;;;;;;30.65;19.98;;;;;;;;;;5053478;28;20029;-75
2022/07/21 03:39:58;;;;;;;31.55;21.73;;;;;;;;;;5055319;28;20082;-75
2022/07/21 03:42:24;;;;;;;29.45;20.02;;;;;;;;;;5054029;28;20376;-75
2022/07/21 03:44:50;;;;;;;28.45;20.00;;;;;;;;;;5055315;28;20029;-75
2022/07/21 03:47:16;;;;;;;31.17;21.95;;;;;;;;;;5053851;28;20375;-75
2022/07/21 03:49:42;;;;;;;34.38;22.33;;;;;;;;;;5054860;28;20031;-75
2022/07/21 03:52:08;;;;;;;27.75;19.90;;;;;;;;;;5054695;28;20075;-75
2022/07/21 03:54:34;;;;;;;28.85;20.63;;;;;;;;;;5054629;28;20025;-75
2022/07/21 03:57:00;;;;;;;31.45;21.65;;;;;;;;;;5054465;28;20063;-75
2022/07/21 03:59:26;;;;;;;28.38;20.05;;;;;;;;;;5054807;28;20060;-75
2022/07/21 04:01:52;;;;;;;30.98;20.42;;;;;;;;;;5054651;28;20028;-75
2022/07/21 04:04:18;;;;;;;29.08;20.42;;;;;;;;;;5054758;28;20017;-75
2022/07/21 04:06:44;;;;;;;30.70;21.60;;;;;;;;;;5054451;28;20494;-75
2022/07/21 04:09:10;;;;;;;28.92;21.13;;;;;;;;;;5054616;28;20036;-74
2022/07/21 04:11:36;;;;;;;38.00;22.88;;;;;;;;;;5054339;28;20029;-75
2022/07/21 04:14:02;;;;;;;31.50;21.88;;;;;;;;;;5054347;28;20044;-75
2022/07/21 04:16:28;;;;;;;30.95;21.65;;;;;;;;;;5051849;28;20052;-76
2022/07/21 04:18:54;;;;;;;30.60;21.73;;;;;;;;;;5054392;28;20033;-75
2022/07/21 04:21:20;;;;;;;32.97;23.23;;;;;;;;;;5054573;28;20029;-76
2022/07/21 04:23:46;;;;;;;35.25;22.92;;;;;;;;;;5054337;28;20021;-75
2022/07/21 04:26:12;;;;;;;36.05;21.77;;;;;;;;;;5054419;28;20392;-75
2022/07/21 04:28:38;;;;;;;32.20;22.80;;;;;;;;;;5054472;28;20387;-76
2022/07/21 04:31:05;;;;;;;34.70;23.63;;;;;;;;;;5054196;28;20082;-75
2022/07/21 04:33:31;;;;;;;33.55;22.60;;;;;;;;;;5052996;28;20391;-74
2022/07/21 04:35:57;;;;;;;35.08;22.90;;;;;;;;;;5054252;28;20037;-76
2022/07/21 04:38:23;;;;;;;39.90;25.13;;;;;;;;;;5054293;28;20017;-75
2022/07/21 04:40:49;;;;;;;37.30;24.17;;;;;;;;;;5054139;28;20021;-76
2022/07/21 04:43:15;;;;;;;36.58;24.10;;;;;;;;;;5054272;28;20025;-75
2022/07/21 04:45:41;;;;;;;40.75;25.40;;;;;;;;;;5054188;28;20075;-75
2022/07/21 04:48:07;;;;;;;37.72;24.48;;;;;;;;;;5053482;28;20036;-75
2022/07/21 04:50:33;;;;;;;41.10;25.65;;;;;;;;;;5053932;28;20387;-76
2022/07/21 04:52:59;;;;;;;41.53;27.48;;;;;;;;;;5053937;28;20479;-75
2022/07/21 04:55:26;;;;;;;44.20;26.77;;;;;;;;;;5052285;28;20042;-76
2022/07/21 04:57:52;;;;;;;44.22;26.52;;;;;;;;;;5053839;28;20040;-75
2022/07/21 05:00:20;;;;;;;39.80;26.25;;;;;;;;;;5053766;28;20100;-75
2022/07/21 05:02:46;;;;;;;42.05;26.52;;;;;;;;;;5053908;28;20017;-75
2022/07/21 05:05:13;;;;;;;42.85;26.10;;;;;;;;;;5053814;28;20052;-75
2022/07/21 05:07:39;;;;;;;43.92;26.58;;;;;;;;;;5053749;28;20108;-76
2022/07/21 05:10:06;;;;;;;41.25;25.77;;;;;;;;;;5053756;28;20040;-75
2022/07/21 05:12:32;;;;;;;43.70;26.73;;;;;;;;;;5053716;28;20025;-75
2022/07/21 05:14:58;;;;;;;45.45;28.98;;;;;;;;;;5053284;28;20463;-75
2022/07/21 05:17:24;;;;;;;47.63;27.30;;;;;;;;;;5053294;28;20059;-76
2022/07/21 05:19:50;;;;;;;48.75;28.65;;;;;;;;;;5053339;28;20029;-75
2022/07/21 05:22:17;;;;;;;48.13;28.83;;;;;;;;;;5053498;28;20078;-76
2022/07/21 05:24:43;;;;;;;45.28;28.17;;;;;;;;;;5053416;28;20032;-75
2022/07/21 05:27:09;;;;;;;45.95;28.05;;;;;;;;;;5053261;28;20033;-75
2022/07/21 05:29:35;;;;;;;43.67;27.70;;;;;;;;;;5053207;28;20145;-75
2022/07/21 05:32:01;;;;;;;43.90;27.27;;;;;;;;;;5053343;28;20025;-75
2022/07/21 05:34:27;;;;;;;43.00;27.15;;;;;;;;;;5053284;28;20025;-76
2022/07/21 05:36:53;;;;;;;46.55;29.02;;;;;;;;;;5052985;28;20025;-75
2022/07/21 05:39:19;;;;;;;45.72;27.88;;;;;;;;;;5051892;28;20067;-75
2022/07/21 05:41:46;;;;;;;54.60;28.75;;;;;;;;;;5052956;28;20029;-75
2022/07/21 05:44:12;;;;;;;52.70;29.67;;;;;;;;;;5053255;28;20108;-75
2022/07/21 05:46:38;;;;;;;49.65;29.45;;;;;;;;;;5052872;28;20434;-75
2022/07/21 05:49:04;;;;;;;53.65;30.67;;;;;;;;;;5052780;28;20028;-75
2022/07/21 05:51:30;;;;;;;45.13;30.30;;;;;;;;;;5052739;28;20025;-75
2022/07/21 05:53:56;;;;;;;50.80;30.10;;;;;;;;;;5050754;28;20043;-76
2022/07/21 05:56:22;;;;;;;55.83;32.78;;;;;;;;;;5051920;28;20025;-75
2022/07/21 05:58:48;;;;;;;57.20;33.47;;;;;;;;;;5051975;28;20115;-75
2022/07/21 06:01:16;;;;;;;50.47;31.55;;;;;;;;;;5051446;28;20021;-75
2022/07/21 06:03:43;;;;;;;47.78;30.02;;;;;;;;;;5052236;28;20024;-75
2022/07/21 06:06:10;;;;;;;49.17;31.05;;;;;;;;;;5049608;28;20029;-75
2022/07/21 06:08:40;;;;;;;52.25;29.30;;;;;;;;;;5052386;28;20027;-75
2022/07/21 06:11:10;;;;;;;44.42;28.55;;;;;;;;;;5052267;28;20024;-75
2022/07/21 06:13:36;;;;;;;49.60;28.88;;;;;;;;;;5052434;28;20308;-75
2022/07/21 06:16:03;;;;;;;46.08;29.40;;;;;;;;;;5051953;28;20076;-76
2022/07/21 06:18:29;;;;;;;46.10;27.02;;;;;;;;;;5052043;28;20021;-75
2022/07/21 06:20:55;;;;;;;41.75;26.40;;;;;;;;;;5051948;28;20021;-75
2022/07/21 06:23:21;;;;;;;44.35;26.50;;;;;;;;;;5052087;28;20013;-75
2022/07/21 06:25:47;;;;;;;39.67;25.58;;;;;;;;;;5049363;28;20025;-75
2022/07/21 06:28:14;;;;;;;39.45;24.33;;;;;;;;;;5052131;28;20021;-75
2022/07/21 06:30:40;;;;;;;38.45;22.52;;;;;;;;;;5052298;28;20387;-75
2022/07/21 06:33:06;;;;;;;42.05;23.85;;;;;;;;;;5052215;28;20040;-75
2022/07/21 06:35:32;;;;;;;37.45;22.25;;;;;;;;;;5052049;28;20028;-75
2022/07/21 06:37:58;;;;;;;34.60;22.48;;;;;;;;;;5052030;28;20095;-75
2022/07/21 06:40:24;;;;;;;35.08;22.05;;;;;;;;;;5052131;28;20029;-75
2022/07/21 06:42:50;;;;;;;34.95;21.75;;;;;;;;;;5051627;28;20025;-76
2022/07/21 06:45:16;;;;;;;40.25;22.13;;;;;;;;;;5051460;28;20476;-76
2022/07/21 06:47:42;;;;;;;34.25;21.70;;;;;;;;;;5051236;28;20440;-76
2022/07/21 06:50:09;;;;;;;33.58;20.63;;;;;;;;;;5051933;28;20028;-75
2022/07/21 06:52:35;;;;;;;33.60;21.80;;;;;;;;;;5051831;28;20032;-75
2022/07/21 06:55:02;;;;;;;31.52;20.35;;;;;;;;;;5051807;28;20047;-76
2022/07/21 06:57:28;;;;;;;35.95;21.25;;;;;;;;;;5052315;28;20021;-76
2022/07/21 06:59:54;;;;;;;34.30;19.90;;;;;;;;;;5051899;28;20021;-75
2022/07/21 07:02:20;;;;;;;31.35;19.40;;;;;;;;;;5052240;28;20119;-76
2022/07/21 07:04:46;;;;;;;38.17;21.10;;;;;;;;;;5051767;28;20021;-76
2022/07/21 07:07:12;;;;;;;33.75;19.50;;;;;;;;;;5051696;28;20029;-75
2022/07/21 07:09:38;;;;;;;31.88;19.58;;;;;;;;;;5051638;28;20032;-76
2022/07/21 07:12:08;;;;;;;35.60;19.70;;;;;;;;;;5050968;28;20045;-75
2022/07/21 07:14:34;;;;;;;33.85;19.77;;;;;;;;;;5050684;28;20433;-76
2022/07/21 07:17:01;;;;;;;29.52;19.52;;;;;;;;;;5050017;28;20137;-75
2022/07/21 07:19:27;;;;;;;32.70;19.95;;;;;;;;;;5050768;28;20104;-75
2022/07/21 07:21:54;;;;;;;36.75;19.25;;;;;;;;;;5050533;28;20032;-75
2022/07/21 07:24:20;;;;;;;39.45;20.63;;;;;;;;;;5050675;28;20471;-75
2022/07/21 07:26:46;;;;;;;36.47;21.25;;;;;;;;;;5050634;28;20037;-75
2022/07/21 07:29:12;;;;;;;35.92;21.00;;;;;;;;;;5050473;28;20760;-75
2022/07/21 07:31:39;;;;;;;36.50;20.92;;;;;;;;;;5050581;28;20364;-75
2022/07/21 07:34:05;;;;;;;34.25;20.85;;;;;;;;;;5050652;28;20553;-75
2022/07/21 07:36:31;;;;;;;34.88;20.85;;;;;;;;;;5051136;28;20027;-78
2022/07/21 07:38:57;;;;;;;32.75;20.60;;;;;;;;;;5051955;28;20021;-78
2022/07/21 07:41:24;;;;;;;33.78;21.23;;;;;;;;;;5052341;28;20040;-78
2022/07/21 07:43:51;;;;;;;35.35;21.15;;;;;;;;;;5051134;28;20827;-79
2022/07/21 07:46:17;;;;;;;34.35;22.30;;;;;;;;;;5052336;28;20048;-78
2022/07/21 07:48:43;;;;;;;42.40;22.02;;;;;;;;;;5052217;28;20059;-79
2022/07/21 07:51:10;;;;;;;36.30;21.90;;;;;;;;;;5052219;28;20162;-79
2022/07/21 07:53:36;;;;;;;36.92;22.08;;;;;;;;;;5052125;28;20025;-79
2022/07/21 07:56:02;;;;;;;38.90;23.23;;;;;;;;;;5052008;28;20364;-79
2022/07/21 07:58:28;;;;;;;41.47;23.27;;;;;;;;;;5052026;28;20028;-77
2022/07/21 08:00:54;;;;;;;46.65;23.30;;;;;;;;;;5051630;28;20029;-75
2022/07/21 08:03:21;;;;;;;38.72;22.45;;;;;;;;;;5051268;28;20098;-79
2022/07/21 08:05:48;;;;;;;41.75;23.85;;;;;;;;;;5051581;28;20036;-78
2022/07/21 08:08:14;;;;;;;38.80;22.73;;;;;;;;;;5051446;28;20692;-76
2022/07/21 08:10:40;;;;;;;41.22;22.80;;;;;;;;;;5049841;28;20029;-76
2022/07/21 08:13:08;;;;;;;40.67;23.38;;;;;;;;;;5050511;28;20060;-76
2022/07/21 08:15:34;;;;;;;41.33;23.08;;;;;;;;;;5051034;28;20079;-76
2022/07/21 08:18:00;;;;;;;48.15;25.85;;;;;;;;;;5051355;28;20368;-76
2022/07/21 08:20:26;;;;;;;45.78;24.33;;;;;;;;;;5051430;28;20427;-76
2022/07/21 08:22:52;;;;;;;47.47;24.85;;;;;;;;;;5051454;28;20489;-76
2022/07/21 08:25:18;;;;;;;43.40;24.92;;;;;;;;;;5053425;28;20029;-76
2022/07/21 08:27:44;;;;;;;41.42;24.58;;;;;;;;;;5054045;28;20033;-76
2022/07/21 08:30:11;;;;;;;45.78;25.50;;;;;;;;;;5054612;28;20021;-76
2022/07/21 08:32:37;;;;;;;51.53;26.73;;;;;;;;;;5053969;28;20033;-76
2022/07/21 08:35:08;;;;;;;47.65;24.73;;;;;;;;;;5054195;28;20029;-76
2022/07/21 08:37:34;;;;;;;45.65;25.45;;;;;;;;;;5054693;28;20024;-76
2022/07/21 08:40:00;;;;;;;50.00;26.02;;;;;;;;;;5054523;28;20444;-76
2022/07/21 08:42:27;;;;;;;46.28;26.27;;;;;;;;;;5036144;28;20091;-76
2022/07/21 08:44:53;;;;;;;54.45;27.73;;;;;;;;;;5034848;28;20018;-76
2022/07/21 08:47:19;;;;;;;55.30;29.65;;;;;;;;;;5034541;28;20468;-76
2022/07/21 08:49:46;;;;;;;64.45;31.52;;;;;;;;;;5034581;28;20083;-76
2022/07/21 08:52:13;;;;;;;71.38;32.63;;;;;;;;;;5034569;28;20112;-76
2022/07/21 08:54:39;;;;;;;75.70;33.67;;;;;;;;;;5034273;28;20022;-76
2022/07/21 08:57:05;;;;;;;70.30;30.60;;;;;;;;;;5034268;28;20449;-76
2022/07/21 08:59:31;;;;;;;62.85;28.33;;;;;;;;;;5047221;28;20096;-76
2022/07/21 09:01:57;;;;;;;61.28;29.50;;;;;;;;;;5053913;28;20032;-76
2022/07/21 09:04:34;;;;;;;63.22;29.67;;;;;;;;;;5053949;28;20017;-77
2022/07/21 09:07:01;;;;;;;56.72;29.45;;;;;;;;;;5053927;28;20029;-78
2022/07/21 09:09:28;;;;;;;54.95;28.17;;;;;;;;;;5054229;28;20027;-76
2022/07/21 09:11:55;;;;;;;62.53;30.20;;;;;;;;;;5052633;28;20108;-76
2022/07/21 09:14:23;;;;;;;59.35;27.02;;;;;;;;;;5052059;28;20726;-76
2022/07/21 09:16:51;;;;;;;55.05;25.02;;;;;;;;;;5051921;28;20064;-76
2022/07/21 09:19:27;;;;;;;41.47;21.67;;;;;;;;;;5052137;28;20483;-75
2022/07/21 09:21:56;;;;;;;39.90;21.30;;;;;;;;;;5051298;28;20021;-76
2022/07/21 09:24:29;;;;;;;38.83;21.02;;;;;;;;;;5052144;28;20048;-75
2022/07/21 09:27:14;;;;;;;40.30;20.10;;;;;;;;;;5051961;28;20860;-75
2022/07/21 09:29:43;;;;;;;34.80;19.05;;;;;;;;;;5052179;28;20730;-75
2022/07/21 09:32:28;;;;;;;38.92;21.00;;;;;;;;;;5051969;28;20103;-75
2022/07/21 09:34:58;;;;;;;35.00;20.20;;;;;;;;;;5052010;28;20029;-75
2022/07/21 09:37:24;;;;;;;38.45;20.45;;;;;;;;;;5052188;28;20087;-76
2022/07/21 09:39:55;;;;;;;36.70;18.98;;;;;;;;;;5052018;28;20017;-75
2022/07/21 09:42:25;;;;;;;32.80;18.92;;;;;;;;;;5049971;28;20514;-75
2022/07/21 09:44:53;;;;;;;31.50;17.10;;;;;;;;;;5052748;28;20027;-74
2022/07/21 09:47:22;;;;;;;31.13;17.73;;;;;;;;;;5049493;28;20087;-74
2022/07/21 09:49:48;;;;;;;45.10;19.83;;;;;;;;;;5047827;28;20032;-74
2022/07/21 09:52:22;;;;;;;33.80;19.05;;;;;;;;;;5051937;28;20391;-74
2022/07/21 09:54:48;;;;;;;39.50;20.83;;;;;;;;;;5049099;28;20029;-74
2022/07/21 09:57:18;;;;;;;35.95;20.40;;;;;;;;;;5051447;28;20033;-74
2022/07/21 09:59:45;;;;;;;36.50;19.83;;;;;;;;;;5051802;28;20020;-74
2022/07/21 10:02:18;;;;;;;40.80;21.30;;;;;;;;;;5051310;28;20017;-74
2022/07/21 10:04:46;;;;;;;38.65;19.55;;;;;;;;;;5051188;28;20036;-74
2022/07/21 10:07:12;;;;;;;33.90;19.10;;;;;;;;;;5051710;28;20017;-74
2022/07/21 10:09:39;;;;;;;33.70;18.67;;;;;;;;;;5051375;28;20025;-74
2022/07/21 10:12:05;;;;;;;37.83;19.45;;;;;;;;;;5051588;28;20036;-74
2022/07/21 10:14:31;;;;;;;36.33;18.88;;;;;;;;;;5051589;28;20032;-74
2022/07/21 10:16:57;;;;;;;41.25;19.13;;;;;;;;;;5051190;28;20063;-74
2022/07/21 10:19:27;;;;;;;35.83;19.63;;;;;;;;;;5051554;28;20096;-74
2022/07/21 10:22:08;;;;;;;43.25;19.58;;;;;;;;;;5052250;28;20017;-75
2022/07/21 10:24:34;;;;;;;31.33;16.83;;;;;;;;;;5052519;28;20032;-74
2022/07/21 10:27:02;;;;;;;23.98;15.20;;;;;;;;;;5052355;28;20440;-73
2022/07/21 10:29:46;;;;;;;21.73;13.25;;;;;;;;;;5052399;28;20031;-75
2022/07/21 10:32:17;;;;;;;17.63;11.82;;;;;;;;;;5052338;28;20387;-77
2022/07/21 10:34:44;;;;;;;18.90;9.68;;;;;;;;;;5052157;28;20028;-78
2022/07/21 10:37:10;;;;;;;12.95;9.38;;;;;;;;;;5052075;28;20086;-77
2022/07/21 10:39:36;;;;;;;14.48;9.80;;;;;;;;;;5052180;28;20033;-78
2022/07/21 10:42:14;;;;;;;14.57;8.85;;;;;;;;;;5051721;28;20422;-77
2022/07/21 10:44:40;;;;;;;12.32;8.38;;;;;;;;;;5052015;28;20024;-78
2022/07/21 10:47:30;;;;;;;13.55;8.30;;;;;;;;;;5051809;28;20467;-78
2022/07/21 10:50:00;;;;;;;10.38;7.50;;;;;;;;;;5052241;28;20033;-78
2022/07/21 10:52:35;;;;;;;10.20;7.68;;;;;;;;;;5051141;28;20020;-78
2022/07/21 10:55:26;;;;;;;9.32;7.55;;;;;;;;;;5050494;28;20036;-77
2022/07/21 10:58:14;;;;;;;11.05;7.93;;;;;;;;;;5051858;28;20032;-77
2022/07/21 11:00:47;;;;;;;7.60;6.32;;;;;;;;;;5051951;28;20021;-78
2022/07/21 11:03:33;;;;;;;8.27;6.38;;;;;;;;;;5051982;28;20019;-78
2022/07/21 11:06:06;;;;;;;11.05;7.00;;;;;;;;;;5051634;28;20434;-78
2022/07/21 11:08:32;;;;;;;;;;;;;;;;;;5052254;28;20029;-77
2022/07/21 11:11:08;;;;;;;9.35;6.88;;;;;;;;;;5051862;28;19912;-77
2022/07/21 11:13:53;;;;;;;8.88;6.70;;;;;;;;;;5051602;28;20036;-77
2022/07/21 11:16:19;;;;;;;9.68;6.20;;;;;;;;;;5051624;28;20125;-78
2022/07/21 11:18:45;;;;;;;9.52;5.93;;;;;;;;;;5051792;28;20028;-77
2022/07/21 11:21:13;;;;;;;9.25;6.32;;;;;;;;;;5051743;28;20021;-77
2022/07/21 11:23:43;;;;;;;8.90;6.03;;;;;;;;;;5051540;28;20024;-77
2022/07/21 11:26:11;;;;;;;9.75;6.80;;;;;;;;;;5051699;28;20021;-77
2022/07/21 11:28:38;;;;;;;12.68;7.07;;;;;;;;;;5051646;28;20028;-77
2022/07/21 11:31:07;;;;;;;8.77;7.03;;;;;;;;;;5051674;28;20483;-77
2022/07/21 11:33:35;;;;;;;11.57;8.60;;;;;;;;;;5051731;28;20033;-77
2022/07/21 11:36:02;;;;;;;13.35;7.95;;;;;;;;;;5051450;28;20017;-77
2022/07/21 11:38:28;;;;;;;10.40;7.25;;;;;;;;;;5051579;28;20163;-77
2022/07/21 11:40:54;;;;;;;13.57;8.25;;;;;;;;;;5051527;28;20106;-77
2022/07/21 11:43:20;;;;;;;10.10;8.13;;;;;;;;;;5051437;28;20036;-77
2022/07/21 11:45:53;;;;;;;13.50;8.75;;;;;;;;;;5051348;28;20025;-77
2022/07/21 11:48:32;;;;;;;14.63;8.30;;;;;;;;;;5051371;28;20029;-77
2022/07/21 11:51:02;;;;;;;11.90;8.52;;;;;;;;;;5031608;28;20061;-77
2022/07/21 11:53:28;;;;;;;12.68;8.35;;;;;;;;;;5031451;28;20460;-77
2022/07/21 11:55:54;;;;;;;13.48;8.02;;;;;;;;;;5031141;28;20784;-77
2022/07/21 11:58:20;;;;;;;11.07;8.50;;;;;;;;;;5032954;28;20021;-77
2022/07/21 12:00:47;;;;;;;11.13;7.35;;;;;;;;;;5035345;28;20025;-77
2022/07/21 12:03:13;;;;;;;10.88;7.43;;;;;;;;;;5035348;28;20467;-78
2022/07/21 12:05:40;;;;;;;12.23;7.47;;;;;;;;;;5035194;28;20040;-77
2022/07/21 12:08:06;;;;;;;12.15;6.80;;;;;;;;;;5035139;28;20060;-78
2022/07/21 12:10:33;;;;;;;8.52;6.80;;;;;;;;;;5035271;28;20033;-78
2022/07/21 12:12:59;;;;;;;13.68;6.25;;;;;;;;;;5035063;28;20025;-78
2022/07/21 12:15:31;;;;;;;9.05;6.57;;;;;;;;;;5034884;28;20498;-78
2022/07/21 12:18:00;;;;;;;11.38;6.53;;;;;;;;;;5035114;28;20018;-78
2022/07/21 12:20:29;;;;;;;12.45;7.60;;;;;;;;;;5034888;28;20021;-77
2022/07/21 12:22:56;;;;;;;9.05;6.75;;;;;;;;;;5034878;28;20030;-78
2022/07/21 12:25:36;;;;;;;10.70;7.20;;;;;;;;;;5034810;28;20025;-78
2022/07/21 12:28:02;;;;;;;9.35;7.13;;;;;;;;;;5034835;28;20028;-78
2022/07/21 12:30:31;;;;;;;11.30;7.05;;;;;;;;;;5034734;28;20087;-78
2022/07/21 12:33:05;;;;;;;11.43;7.40;;;;;;;;;;5034634;28;20028;-78
2022/07/21 12:35:32;;;;;;;12.43;7.95;;;;;;;;;;5041569;28;20119;-78
2022/07/21 12:37:58;;;;;;;10.73;7.70;;;;;;;;;;5054563;28;20025;-78
2022/07/21 12:40:25;;;;;;;12.80;8.43;;;;;;;;;;5054645;28;20252;-78
2022/07/21 12:42:51;;;;;;;13.68;7.97;;;;;;;;;;5054420;28;20029;-78
2022/07/21 12:45:18;;;;;;;12.20;9.00;;;;;;;;;;5054538;28;20029;-78
2022/07/21 12:48:04;;;;;;;14.10;9.10;;;;;;;;;;5054294;28;20021;-78
2022/07/21 12:50:30;;;;;;;13.85;8.30;;;;;;;;;;5054196;28;20056;-78
2022/07/21 12:52:57;;;;;;;10.45;7.65;;;;;;;;;;5052843;28;20032;-78
2022/07/21 12:55:23;;;;;;;11.38;7.95;;;;;;;;;;5053887;28;20058;-77
2022/07/21 12:57:49;;;;;;;9.63;6.78;;;;;;;;;;5054069;28;20021;-78
2022/07/21 13:00:15;;;;;;;10.60;6.55;;;;;;;;;;5054175;28;20022;-78
2022/07/21 13:02:48;;;;;;;9.40;6.55;;;;;;;;;;5054209;28;20460;-78
2022/07/21 13:05:14;;;;;;;9.50;6.80;;;;;;;;;;5054048;28;20120;-78
2022/07/21 13:07:40;;;;;;;7.60;5.57;;;;;;;;;;5053973;28;20036;-78
2022/07/21 13:10:06;;;;;;;17.42;8.00;;;;;;;;;;5053702;28;20029;-78
2022/07/21 13:12:32;;;;;;;9.38;5.78;;;;;;;;;;5053902;28;20100;-78
2022/07/21 13:14:58;;;;;;;10.57;5.93;;;;;;;;;;5053814;28;20436;-78
2022/07/21 13:17:24;;;;;;;8.95;5.78;;;;;;;;;;5052205;28;20416;-78
2022/07/21 13:19:50;;;;;;;8.15;5.43;;;;;;;;;;5053769;28;20036;-78
2022/07/21 13:22:16;;;;;;;9.30;5.35;;;;;;;;;;5053629;28;20025;-78
2022/07/21 13:24:42;;;;;;;7.47;5.35;;;;;;;;;;5053812;28;20029;-78
2022/07/21 13:27:08;;;;;;;7.30;5.65;;;;;;;;;;5053498;28;20028;-78
2022/07/21 13:29:36;;;;;;;9.05;5.90;;;;;;;;;;5053724;28;20565;-78
2022/07/21 13:32:03;;;;;;;13.88;6.32;;;;;;;;;;5053881;28;20066;-78
2022/07/21 13:34:29;;;;;;;6.57;5.55;;;;;;;;;;5053554;28;20028;-78
2022/07/21 13:36:55;;;;;;;7.07;4.80;;;;;;;;;;5053292;28;20029;-78
2022/07/21 13:39:26;;;;;;;8.50;5.60;;;;;;;;;;5053484;28;20017;-78
2022/07/21 13:41:52;;;;;;;9.35;5.72;;;;;;;;;;5053448;28;20385;-78
2022/07/21 13:44:18;;;;;;;10.65;6.03;;;;;;;;;;5053486;28;20029;-78
2022/07/21 13:46:44;;;;;;;9.35;6.25;;;;;;;;;;5053137;28;20037;-78
2022/07/21 13:49:10;;;;;;;10.93;6.10;;;;;;;;;;5053257;28;20036;-78
2022/07/21 13:51:36;;;;;;;8.55;6.28;;;;;;;;;;5053195;28;20061;-78
2022/07/21 13:54:02;;;;;;;10.52;6.55;;;;;;;;;;5053176;28;20025;-78
2022/07/21 13:56:28;;;;;;;8.90;6.38;;;;;;;;;;5053076;28;20102;-78
2022/07/21 13:58:55;;;;;;;10.93;5.65;;;;;;;;;;5053071;28;20146;-78
2022/07/21 14:01:21;;;;;;;10.65;5.70;;;;;;;;;;5053186;28;20021;-78
2022/07/21 14:03:47;;;;;;;7.60;4.72;;;;;;;;;;5052995;28;20036;-78
2022/07/21 14:06:14;;;;;;;7.28;5.00;;;;;;;;;;5053132;28;20048;-78
2022/07/21 14:08:40;;;;;;;7.63;3.92;;;;;;;;;;5053033;28;20033;-78
2022/07/21 14:11:07;;;;;;;9.82;4.20;;;;;;;;;;5053001;28;20036;-78
2022/07/21 14:13:33;;;;;;;6.43;3.70;;;;;;;;;;5052806;28;20025;-78
2022/07/21 14:15:59;;;;;;;6.15;4.03;;;;;;;;;;5052679;28;20182;-78
2022/07/21 14:18:25;;;;;;;7.82;3.47;;;;;;;;;;5051277;28;20068;-78
2022/07/21 14:20:51;;;;;;;5.40;3.50;;;;;;;;;;5052086;28;20021;-78
2022/07/21 14:23:18;;;;;;;4.93;3.22;;;;;;;;;;5052877;28;20051;-78
2022/07/21 14:25:44;;;;;;;5.95;3.72;;;;;;;;;;5052525;28;20029;-78
2022/07/21 14:28:10;;;;;;;5.45;3.20;;;;;;;;;;5052599;28;20072;-78